Time;durP1;ratioP1;P1;durP2;ratioP2;P2;SDS_P1;SDS_P2;PMS_P1;PMS_P2;Temp;Humidity;BMP_temperature;BMP_pressure;BME280_temperature;BME280_humidity;BME280_pressure;Samples;Min_cycle;Max_cycle;Signal;HPM_P1;HPM_P2
2022/06/02 00:01:52;;;;;;;2.53;1.10;;;14.60;93.50;;;;;;4951620;29;20471;-81
2022/06/02 00:04:26;;;;;;;2.87;1.30;;;14.50;93.50;;;;;;4955786;29;20408;-82
2022/06/02 00:07:22;;;;;;;2.63;1.20;;;14.50;93.70;;;;;;4956584;29;20431;-84
2022/06/02 00:10:20;;;;;;;2.40;1.30;;;14.50;95.30;;;;;;4936970;29;20460;-85
2022/06/02 00:12:51;;;;;;;1.30;0.97;;;14.30;96.70;;;;;;4952341;29;20438;-82
2022/06/02 00:15:26;;;;;;;1.77;1.30;;;14.30;97.30;;;;;;4958849;29;20455;-81
2022/06/02 00:18:00;;;;;;;2.07;1.40;;;14.10;97.90;;;;;;4957443;28;20982;-81
2022/06/02 00:20:32;;;;;;;2.42;1.40;;;14.10;98.30;;;;;;4956123;29;20435;-83
2022/06/02 00:23:19;;;;;;;1.83;1.33;;;14.00;98.80;;;;;;4957685;29;20666;-80
2022/06/02 00:26:06;;;;;;;2.05;1.30;;;13.90;99.20;;;;;;4942778;29;20172;-82
2022/06/02 00:28:38;;;;;;;1.60;1.08;;;13.80;99.90;;;;;;4947771;28;20188;-80
2022/06/02 00:31:31;;;;;;;2.95;1.77;;;13.80;99.90;;;;;;4953699;29;20227;-80
2022/06/02 00:34:22;;;;;;;3.53;1.45;;;13.70;99.90;;;;;;4945849;29;20532;-82
2022/06/02 00:37:15;;;;;;;5.38;1.50;;;13.70;99.90;;;;;;4949413;29;20189;-83
2022/06/02 00:39:40;;;;;;;1.20;1.10;;;13.60;99.90;;;;;;4943824;28;20213;-81
2022/06/02 00:42:24;;;;;;;1.90;1.27;;;13.50;99.90;;;;;;4946486;29;20259;-80
2022/06/02 00:44:59;;;;;;;1.77;1.17;;;13.50;99.90;;;;;;4947538;29;20177;-80
2022/06/02 00:47:52;;;;;;;4.87;1.10;;;13.40;99.90;;;;;;4943930;29;20611;-81
2022/06/02 00:50:55;;;;;;;2.35;1.52;;;13.40;99.90;;;;;;4949958;29;20531;-82
2022/06/02 00:53:30;;;;;;;4.32;1.50;;;13.30;99.90;;;;;;4947009;29;20251;-78
2022/06/02 00:59:31;;;;;;;4.97;1.50;;;13.20;99.90;;;;;;4944540;28;20236;-82
2022/06/02 01:01:56;;;;;;;3.25;1.30;;;13.10;99.90;;;;;;4943616;29;20844;-79
2022/06/02 01:04:22;;;;;;;1.53;1.30;;;13.00;99.90;;;;;;4946667;29;20181;-82
2022/06/02 01:06:57;;;;;;;1.77;1.40;;;12.90;99.90;;;;;;4945197;29;20650;-81
2022/06/02 01:09:31;;;;;;;2.55;1.23;;;12.80;99.90;;;;;;4947904;29;20197;-80
2022/06/02 01:12:18;;;;;;;4.60;1.60;;;12.80;99.90;;;;;;4943437;29;20185;-80
2022/06/02 01:15:13;;;;;;;6.50;1.58;;;12.70;99.90;;;;;;4944223;29;20184;-81
2022/06/02 01:17:45;;;;;;;3.75;1.70;;;12.50;99.90;;;;;;4943135;29;20189;-77
2022/06/02 01:20:34;;;;;;;1.50;1.40;;;12.50;99.90;;;;;;4948161;29;20184;-81
2022/06/02 01:23:30;;;;;;;5.40;1.30;;;12.30;99.90;;;;;;4944555;29;20280;-82
2022/06/02 01:26:23;;;;;;;1.25;1.15;;;12.30;99.90;;;;;;4950741;29;20207;-80
2022/06/02 01:29:08;;;;;;;1.65;1.38;;;12.30;99.90;;;;;;4939465;28;20228;-80
2022/06/02 01:32:04;;;;;;;2.00;1.60;;;12.30;99.90;;;;;;4942832;28;20232;-79
2022/06/02 01:35:05;;;;;;;1.80;1.40;;;12.30;99.90;;;;;;4943650;29;20666;-80
2022/06/02 01:37:48;;;;;;;1.50;1.30;;;12.20;99.90;;;;;;4902439;29;20205;-82
2022/06/02 01:40:30;;;;;;;1.67;1.30;;;12.00;99.90;;;;;;4944685;29;20197;-79
2022/06/02 01:43:10;;;;;;;3.05;1.60;;;15.10;99.90;;;;;;4942733;29;20235;-79
2022/06/02 01:45:43;;;;;;;1.90;1.70;;;11.90;99.90;;;;;;4949943;29;20243;-83
2022/06/02 01:48:45;;;;;;;3.20;2.17;;;11.90;99.90;;;;;;4948947;28;20575;-81
2022/06/02 01:51:30;;;;;;;2.05;1.45;;;11.90;99.90;;;;;;4953156;29;20180;-83
2022/06/02 01:54:23;;;;;;;2.45;1.38;;;11.90;99.90;;;;;;4946936;28;20184;-84
2022/06/02 01:57:24;;;;;;;3.08;1.70;;;11.90;99.90;;;;;;4954653;29;20192;-80
2022/06/02 02:00:09;;;;;;;2.83;1.58;;;11.90;99.90;;;;;;4920456;23;20260;-87
2022/06/02 02:02:53;;;;;;;2.40;1.75;;;11.90;99.90;;;;;;4934195;29;20213;-89
2022/06/02 02:05:38;;;;;;;3.10;1.60;;;11.90;99.90;;;;;;4937875;29;20198;-87
2022/06/02 02:08:19;;;;;;;2.13;1.95;;;11.90;99.90;;;;;;4920858;29;20173;-85
2022/06/02 02:11:15;;;;;;;2.35;1.23;;;11.60;99.90;;;;;;4930815;29;20217;-87
2022/06/02 02:14:04;;;;;;;2.67;1.65;;;11.60;99.90;;;;;;4926921;29;20186;-86
2022/06/02 02:16:51;;;;;;;2.90;1.60;;;11.50;99.90;;;;;;4902794;29;20491;-86
2022/06/02 02:19:40;;;;;;;5.28;2.22;;;11.60;99.90;;;;;;4930406;29;20171;-86
2022/06/02 02:22:23;;;;;;;2.65;1.80;;;11.60;99.90;;;;;;4943250;28;20288;-87
2022/06/02 02:25:04;;;;;;;3.08;1.45;;;11.50;99.90;;;;;;4925280;29;20190;-87
2022/06/02 02:28:04;;;;;;;5.53;2.22;;;11.50;99.90;;;;;;4932518;29;20182;-87
2022/06/02 02:30:46;;;;;;;2.50;1.85;;;11.50;99.90;;;;;;4933423;29;20214;-87
2022/06/02 02:33:45;;;;;;;2.00;1.50;;;11.50;99.90;;;;;;4923597;29;20266;-87
2022/06/02 02:36:59;;;;;;;3.28;1.30;;;11.60;99.90;;;;;;4929676;29;20189;-86
2022/06/02 02:39:46;;;;;;;1.75;1.52;;;11.50;99.90;;;;;;4919714;29;20284;-87
2022/06/02 02:42:27;;;;;;;2.80;1.67;;;11.50;99.90;;;;;;4924294;29;20206;-87
2022/06/02 02:45:27;;;;;;;3.65;1.98;;;11.50;99.90;;;;;;4928774;29;20290;-87
2022/06/02 02:48:12;;;;;;;4.35;1.70;;;11.50;99.90;;;;;;4925328;29;20198;-85
2022/06/02 02:50:51;;;;;;;3.30;1.35;;;11.50;99.90;;;;;;4935388;29;21194;-88
2022/06/02 02:53:21;;;;;;;4.63;2.30;;;11.50;99.90;;;;;;4949818;28;20224;-89
2022/06/02 02:55:58;;;;;;;4.13;1.33;;;11.40;99.90;;;;;;4935278;29;20683;-88
2022/06/02 02:58:42;;;;;;;6.95;1.70;;;11.30;99.90;;;;;;4933272;29;20189;-86
2022/06/02 03:01:34;;;;;;;1.90;1.70;;;11.30;99.90;;;;;;4930501;29;20847;-88
2022/06/02 03:04:32;;;;;;;1.95;1.65;;;11.20;99.90;;;;;;4941661;29;20414;-86
2022/06/02 03:06:59;;;;;;;4.38;1.85;;;11.10;99.90;;;;;;4929212;29;20641;-86
2022/06/02 03:09:34;;;;;;;2.40;1.77;;;11.00;99.90;;;;;;4939286;29;20196;-87
2022/06/02 03:12:09;;;;;;;1.98;1.65;;;10.90;99.90;;;;;;4947501;28;20193;-86
2022/06/02 03:14:56;;;;;;;2.50;1.92;;;10.90;99.90;;;;;;4934200;29;20199;-87
2022/06/02 03:17:28;;;;;;;2.45;2.00;;;10.70;99.90;;;;;;4942999;29;20173;-85
2022/06/02 03:20:12;;;;;;;1.83;1.40;;;10.70;99.90;;;;;;4942689;29;20291;-86
2022/06/02 03:23:02;;;;;;;2.97;1.90;;;10.70;99.90;;;;;;4935111;29;20285;-87
2022/06/02 03:25:53;;;;;;;1.73;1.60;;;10.60;99.90;;;;;;4942933;29;20178;-88
2022/06/02 03:28:51;;;;;;;8.55;1.90;;;10.50;99.90;;;;;;4932564;29;20177;-85
2022/06/02 03:31:33;;;;;;;3.75;2.20;;;10.60;99.90;;;;;;4931985;29;20208;-86
2022/06/02 03:34:32;;;;;;;2.65;1.73;;;10.40;99.90;;;;;;4935717;29;20177;-88
2022/06/02 03:37:10;;;;;;;1.70;1.60;;;10.40;99.90;;;;;;4948773;29;20203;-86
2022/06/02 03:39:54;;;;;;;4.70;1.77;;;10.40;99.90;;;;;;4947810;29;20269;-85
2022/06/02 03:42:34;;;;;;;2.60;1.77;;;10.50;99.90;;;;;;4934275;29;20204;-88
2022/06/02 03:45:29;;;;;;;1.92;1.83;;;10.50;99.90;;;;;;4935598;29;20191;-86
2022/06/02 03:48:00;;;;;;;3.60;3.15;;;10.50;99.90;;;;;;4934736;29;20194;-87
2022/06/02 03:50:34;;;;;;;2.83;1.88;;;10.60;99.90;;;;;;4933336;29;20201;-86
2022/06/02 03:53:15;;;;;;;5.70;1.60;;;10.60;99.90;;;;;;4934259;29;20197;-87
2022/06/02 03:56:22;;;;;;;2.75;1.67;;;10.70;99.90;;;;;;4935821;29;20194;-88
2022/06/02 03:59:31;;;;;;;4.28;2.63;;;10.90;99.90;;;;;;4933776;29;20216;-86
2022/06/02 04:02:02;;;;;;;2.38;1.73;;;11.10;99.90;;;;;;4910500;29;20205;-87
2022/06/02 04:04:28;;;;;;;5.28;1.73;;;11.30;99.90;;;;;;4935619;29;20208;-87
2022/06/02 04:07:33;;;;;;;2.60;2.07;;;11.20;99.90;;;;;;4931644;29;20265;-86
2022/06/02 04:10:21;;;;;;;2.08;1.88;;;11.60;99.90;;;;;;4927068;29;20482;-87
2022/06/02 04:16:09;;;;;;;5.22;2.00;;;12.30;99.90;;;;;;4928567;29;20189;-87
2022/06/02 04:18:40;;;;;;;4.05;1.75;;;12.60;99.90;;;;;;4927211;29;20197;-85
2022/06/02 04:21:25;;;;;;;3.17;1.90;;;12.80;99.90;;;;;;4929358;29;20213;-85
2022/06/02 04:24:28;;;;;;;1.92;1.70;;;12.80;99.90;;;;;;4931490;29;20207;-85
2022/06/02 04:27:23;;;;;;;4.40;1.90;;;12.80;99.90;;;;;;4924898;29;20229;-85
2022/06/02 04:30:10;;;;;;;7.32;2.08;;;14.30;99.90;;;;;;4928433;29;20206;-86
2022/06/02 04:32:45;;;;;;;3.00;2.58;;;17.00;99.90;;;;;;4930484;29;20183;-86
2022/06/02 04:35:41;;;;;;;3.63;1.50;;;19.40;99.90;;;;;;4928332;29;20257;-86
2022/06/02 04:38:07;;;;;;;1.83;1.60;;;;;;;;;;4929313;29;20444;-86
2022/06/02 04:40:59;;;;;;;1.67;1.40;;;22.60;99.90;;;;;;4932415;29;20965;-87
2022/06/02 04:44:03;;;;;;;6.97;1.93;;;23.80;95.10;;;;;;4937399;29;21283;-86
2022/06/02 04:46:53;;;;;;;3.13;1.60;;;23.90;94.10;;;;;;4930663;29;20509;-86
2022/06/02 04:49:18;;;;;;;4.50;1.90;;;;;;;;;;4925251;29;20429;-86
2022/06/02 04:52:11;;;;;;;1.87;1.77;;;27.50;71.30;;;;;;4926196;29;20441;-86
2022/06/02 04:54:36;;;;;;;4.00;1.80;;;;;;;;;;4924910;29;20980;-86
2022/06/02 04:57:03;;;;;;;2.67;1.57;;;;;;;;;;4924558;29;20445;-86
2022/06/02 04:59:40;;;;;;;2.03;1.80;;;30.40;57.10;;;;;;4933292;29;20542;-86
2022/06/02 05:02:20;;;;;;;2.83;1.77;;;31.40;54.50;;;;;;4932494;29;20453;-86
2022/06/02 05:04:57;;;;;;;3.13;1.40;;;32.50;50.20;;;;;;4938069;29;20499;-85
2022/06/02 05:07:55;;;;;;;3.00;1.70;;;33.50;56.10;;;;;;4931319;29;20450;-85
2022/06/02 05:10:47;;;;;;;3.57;1.87;;;34.10;44.90;;;;;;4931010;29;20460;-85
2022/06/02 05:13:44;;;;;;;3.30;1.90;;;34.40;41.90;;;;;;4938720;29;20993;-85
2022/06/02 05:16:52;;;;;;;2.60;2.00;;;35.10;55.40;;;;;;4931760;29;20433;-86
2022/06/02 05:19:36;;;;;;;2.10;1.80;;;35.10;54.10;;;;;;4930472;29;20426;-86
2022/06/02 05:22:11;;;;;;;2.27;1.77;;;34.60;38.30;;;;;;4932993;29;20452;-86
2022/06/02 05:24:40;;;;;;;2.20;2.00;;;;;;;;;;4925548;29;20401;-85
2022/06/02 05:27:43;;;;;;;1.80;1.60;;;33.80;37.30;;;;;;4925090;29;20433;-86
2022/06/02 05:30:57;;;;;;;9.17;2.30;;;31.70;46.30;;;;;;4930238;29;20476;-85
2022/06/02 05:33:32;;;;;;;3.53;2.30;;;;;;;;;;4928085;29;20465;-85
2022/06/02 05:36:15;;;;;;;4.23;1.80;;;32.70;40.30;;;;;;4927651;29;20426;-86
2022/06/02 05:38:59;;;;;;;3.40;1.70;;;33.60;39.80;;;;;;4927243;29;20443;-86
2022/06/02 05:41:43;;;;;;;5.30;2.20;;;34.90;53.00;;;;;;4926045;29;20445;-86
2022/06/02 05:44:20;;;;;;;3.73;2.20;;;35.70;52.50;;;;;;4925738;29;20410;-86
2022/06/02 05:47:00;;;;;;;2.20;1.93;;;35.50;36.20;;;;;;4929114;29;20509;-86
2022/06/02 05:49:37;;;;;;;4.00;2.43;;;35.90;36.00;;;;;;4938361;29;20468;-85
2022/06/02 05:52:10;;;;;;;3.53;1.80;;;35.60;35.30;;;;;;4934362;29;20433;-86
2022/06/02 05:55:00;;;;;;;3.70;1.70;;;35.60;36.10;;;;;;4930109;29;20453;-85
2022/06/02 05:57:37;;;;;;;2.60;2.03;;;36.00;35.70;;;;;;4931937;29;20437;-86
2022/06/02 06:00:11;;;;;;;8.63;7.30;;;37.00;35.30;;;;;;4940169;29;20481;-86
2022/06/02 06:03:02;;;;;;;9.40;8.90;;;38.10;34.10;;;;;;4942675;29;20923;-86
2022/06/02 06:05:44;;;;;;;10.87;10.37;;;38.30;42.80;;;;;;4936736;29;20515;-86
2022/06/02 06:08:31;;;;;;;12.30;10.43;;;36.90;48.10;;;;;;4928662;29;20752;-86
2022/06/02 06:11:38;;;;;;;12.00;11.07;;;36.60;32.90;;;;;;4930029;29;20459;-86
2022/06/02 06:14:14;;;;;;;10.90;9.93;;;36.00;33.00;;;;;;4931677;29;20425;-86
2022/06/02 06:17:11;;;;;;;9.93;9.33;;;35.80;33.10;;;;;;4935354;29;20494;-86
2022/06/02 06:19:53;;;;;;;9.63;9.10;;;35.20;32.40;;;;;;4934586;29;20481;-86
2022/06/02 06:22:46;;;;;;;9.37;8.97;;;35.50;33.10;;;;;;4936219;29;20469;-86
2022/06/02 06:25:41;;;;;;;9.50;9.10;;;36.20;33.00;;;;;;4928323;29;20431;-86
2022/06/02 06:28:16;;;;;;;9.53;8.73;;;36.60;32.10;;;;;;4927279;29;20518;-86
2022/06/02 06:30:57;;;;;;;8.93;8.53;;;34.90;32.30;;;;;;4932444;29;20470;-86
2022/06/02 06:33:28;;;;;;;8.50;8.03;;;35.10;37.50;;;;;;4933160;29;21098;-86
2022/06/02 06:36:26;;;;;;;8.67;8.00;;;34.30;34.10;;;;;;4937268;29;20447;-87
2022/06/02 06:39:05;;;;;;;4.83;3.00;;;31.90;34.40;;;;;;4924271;29;20463;-87
2022/06/02 06:41:52;;;;;;;2.47;2.27;;;32.00;41.50;;;;;;4920696;29;20425;-86
2022/06/02 06:44:24;;;;;;;3.00;2.43;;;32.00;36.30;;;;;;4921383;29;20439;-86
2022/06/02 06:47:11;;;;;;;2.87;2.67;;;32.00;37.00;;;;;;4927639;29;20500;-86
2022/06/02 06:50:03;;;;;;;4.13;2.73;;;32.30;35.30;;;;;;4937681;29;20848;-85
2022/06/02 06:52:50;;;;;;;3.03;2.80;;;32.80;35.40;;;;;;4923271;29;20950;-86
2022/06/02 06:55:39;;;;;;;3.37;3.07;;;33.10;41.70;;;;;;4922878;29;20444;-85
2022/06/02 06:58:29;;;;;;;6.00;4.17;;;34.20;34.10;;;;;;4922807;29;20442;-85
2022/06/02 07:01:25;;;;;;;4.90;4.40;;;34.90;33.60;;;;;;4931054;29;20565;-86
2022/06/02 07:04:29;;;;;;;8.27;7.80;;;35.50;40.90;;;;;;4926462;29;20527;-86
2022/06/02 07:07:03;;;;;;;9.40;8.90;;;36.00;31.10;;;;;;4927573;29;20433;-87
2022/06/02 07:09:51;;;;;;;9.20;8.80;;;35.30;31.70;;;;;;4930766;29;20489;-86
2022/06/02 07:12:50;;;;;;;8.87;8.17;;;35.40;32.40;;;;;;4937284;29;20489;-86
2022/06/02 07:15:33;;;;;;;9.73;9.30;;;35.00;32.10;;;;;;4927051;29;20471;-87
2022/06/02 07:18:28;;;;;;;9.90;9.20;;;35.00;32.30;;;;;;4930182;29;20446;-86
2022/06/02 07:21:07;;;;;;;9.43;8.83;;;35.10;33.10;;;;;;4928671;29;20218;-86
2022/06/02 07:23:47;;;;;;;9.50;8.73;;;35.30;33.30;;;;;;4925208;29;20464;-86
2022/06/02 07:26:37;;;;;;;9.87;9.20;;;35.70;32.30;;;;;;4926980;29;20910;-88
2022/06/02 07:29:17;;;;;;;10.27;9.50;;;34.50;33.60;;;;;;4930652;29;21004;-86
2022/06/02 07:32:23;;;;;;;10.37;8.90;;;34.60;34.40;;;;;;4933619;29;20454;-88
2022/06/02 07:34:58;;;;;;;8.73;8.20;;;33.70;33.50;;;;;;4926702;29;20787;-85
2022/06/02 07:37:29;;;;;;;12.70;7.33;;;32.20;34.70;;;;;;4940834;28;20526;-87
2022/06/02 07:40:32;;;;;;;8.00;7.43;;;32.10;35.90;;;;;;4938999;29;20448;-84
2022/06/02 07:43:16;;;;;;;8.20;7.70;;;32.60;35.20;;;;;;4938174;29;20466;-86
2022/06/02 07:45:44;;;;;;;7.20;6.80;;;32.70;36.10;;;;;;4936757;29;20398;-86
2022/06/02 07:48:43;;;;;;;7.87;7.37;;;33.30;35.10;;;;;;4938546;29;20415;-85
2022/06/02 07:51:27;;;;;;;9.00;8.47;;;35.10;33.60;;;;;;4918501;29;20588;-86
2022/06/02 07:54:31;;;;;;;9.73;9.17;;;34.90;35.30;;;;;;4930818;28;20442;-87
2022/06/02 07:57:18;;;;;;;8.83;8.33;;;34.30;37.40;;;;;;4917310;29;20978;-86
2022/06/02 08:00:27;;;;;;;9.50;8.77;;;34.80;33.30;;;;;;4917890;29;20471;-86
2022/06/02 08:03:19;;;;;;;9.77;8.97;;;34.40;33.30;;;;;;4852506;29;20502;-86
2022/06/02 08:06:06;;;;;;;9.77;9.17;;;35.10;32.80;;;;;;4866853;29;20450;-84
2022/06/02 08:08:45;;;;;;;8.40;7.80;;;34.10;32.70;;;;;;4911008;29;20891;-86
2022/06/02 08:11:31;;;;;;;8.30;7.90;;;33.10;32.40;;;;;;4922408;29;20478;-86
2022/06/02 08:14:31;;;;;;;8.87;8.30;;;33.10;34.20;;;;;;4921966;29;20469;-86
2022/06/02 08:17:10;;;;;;;8.27;7.57;;;33.70;33.30;;;;;;4932278;29;20478;-86
2022/06/02 08:19:57;;;;;;;8.40;7.87;;;34.40;30.60;;;;;;4936140;29;20444;-85
2022/06/02 08:22:37;;;;;;;9.03;8.43;;;32.80;30.40;;;;;;4936493;29;20471;-85
2022/06/02 08:25:12;;;;;;;8.97;8.43;;;34.40;31.70;;;;;;4929012;29;20444;-85
2022/06/02 08:27:58;;;;;;;9.33;8.77;;;34.80;30.60;;;;;;4921649;29;20415;-86
2022/06/02 08:30:52;;;;;;;9.73;8.87;;;34.60;36.70;;;;;;4921717;29;21052;-84
2022/06/02 08:33:49;;;;;;;8.27;7.87;;;34.00;30.80;;;;;;4916277;29;20412;-86
2022/06/02 08:36:24;;;;;;;8.37;7.80;;;34.50;31.50;;;;;;4929825;29;20481;-86
2022/06/02 08:38:50;;;;;;;9.33;8.83;;;;;;;;;;4929163;29;20417;-86
2022/06/02 08:41:46;;;;;;;9.83;9.23;;;34.20;36.00;;;;;;4927561;29;20567;-86
2022/06/02 08:44:33;;;;;;;8.97;8.47;;;33.40;30.10;;;;;;4921818;29;20191;-86
2022/06/02 08:47:45;;;;;;;9.37;8.93;;;33.80;35.80;;;;;;4917298;29;20851;-85
2022/06/02 08:50:41;;;;;;;9.17;8.73;;;33.90;31.10;;;;;;4917151;29;20530;-86
2022/06/02 08:53:28;;;;;;;8.93;8.30;;;34.70;30.10;;;;;;4925386;29;20432;-85
2022/06/02 08:56:18;;;;;;;8.27;7.87;;;34.80;32.50;;;;;;4925684;29;20451;-86
2022/06/02 08:58:44;;;;;;;8.90;8.30;;;;;;;;;;4936892;29;20418;-85
2022/06/02 09:01:10;;;;;;;2.80;1.70;;;;;;;;;;4939059;29;20445;-85
2022/06/02 09:03:36;;;;;;;1.60;1.40;;;;;;;;;;4937397;29;20194;-85
2022/06/02 09:06:29;;;;;;;3.40;1.70;;;31.70;29.20;;;;;;4938123;29;20419;-85
2022/06/02 09:09:04;;;;;;;16.20;15.57;;;31.40;34.50;;;;;;4929419;29;20234;-86
2022/06/02 09:11:40;;;;;;;1.83;1.63;;;32.50;34.20;;;;;;4932861;29;20543;-85
2022/06/02 09:14:17;;;;;;;2.03;1.17;;;32.50;30.70;;;;;;4920150;29;20406;-85
2022/06/02 09:17:29;;;;;;;2.13;1.17;;;31.20;29.10;;;;;;4918132;29;20410;-86
2022/06/02 09:20:12;;;;;;;2.03;1.30;;;31.30;31.40;;;;;;4904023;29;20465;-85
2022/06/02 09:23:03;;;;;;;4.63;1.50;;;31.40;31.60;;;;;;4902745;29;20513;-86
2022/06/02 09:25:42;;;;;;;2.93;1.20;;;32.20;29.30;;;;;;4927113;29;20425;-86
2022/06/02 09:28:32;;;;;;;2.07;1.23;;;32.00;33.30;;;;;;4919744;29;20466;-85
2022/06/02 09:31:13;;;;;;;1.93;1.10;;;31.30;28.40;;;;;;4921199;29;20513;-86
2022/06/02 09:34:08;;;;;;;2.10;1.20;;;30.30;35.10;;;;;;4921975;29;20503;-85
2022/06/02 09:36:58;;;;;;;2.43;1.50;;;29.50;32.00;;;;;;4931089;29;20446;-86
2022/06/02 09:39:54;;;;;;;3.73;1.60;;;30.30;32.20;;;;;;4930708;29;20987;-85
2022/06/02 09:42:57;;;;;;;2.20;1.17;;;31.50;37.60;;;;;;4936876;29;20453;-87
2022/06/02 09:45:52;;;;;;;2.20;1.40;;;31.80;32.40;;;;;;4932817;29;20452;-85
2022/06/02 09:48:43;;;;;;;4.40;1.40;;;30.00;36.90;;;;;;4931960;29;20977;-86
2022/06/02 09:51:23;;;;;;;1.40;1.30;;;30.70;40.10;;;;;;4915818;29;20884;-86
2022/06/02 09:54:31;;;;;;;1.80;1.40;;;31.90;32.20;;;;;;4921502;29;21503;-86
2022/06/02 10:00:50;;;;;;;2.43;1.73;;;28.20;34.00;;;;;;4931960;29;21396;-86
2022/06/02 10:03:54;;;;;;;4.70;1.67;;;27.80;36.00;;;;;;4932869;29;20556;-85
2022/06/02 10:06:20;;;;;;;2.40;1.50;;;27.50;36.10;;;;;;4927981;29;20467;-86
2022/06/02 10:09:17;;;;;;;4.57;1.90;;;29.00;36.00;;;;;;4920547;29;20458;-85
2022/06/02 10:15:46;;;;;;;1.63;1.20;;;28.10;35.60;;;;;;4903683;29;20889;-87
2022/06/02 10:18:54;;;;;;;2.23;1.30;;;29.30;35.80;;;;;;4908178;29;20456;-85
2022/06/02 10:21:48;;;;;;;2.70;1.20;;;30.00;37.00;;;;;;4938998;29;20427;-86
2022/06/02 10:24:44;;;;;;;2.70;1.63;;;30.20;34.00;;;;;;4936698;29;20906;-87
2022/06/02 10:27:10;;;;;;;4.30;1.50;;;;;;;;;;4923289;29;20436;-85
2022/06/02 10:30:03;;;;;;;1.87;1.77;;;30.30;33.50;;;;;;4925733;29;20461;-86
2022/06/02 10:32:48;;;;;;;5.57;2.70;;;30.30;34.00;;;;;;4930362;29;21079;-86
2022/06/02 10:35:14;;;;;;;4.03;1.60;;;;;;;;;;4929011;29;20417;-86
2022/06/02 10:37:57;;;;;;;2.60;1.60;;;29.30;35.50;;;;;;4933674;29;20478;-85
2022/06/02 10:40:47;;;;;;;10.67;2.07;;;26.60;39.10;;;;;;4930659;29;20462;-83
2022/06/02 10:43:32;;;;;;;1.60;1.50;;;26.40;39.80;;;;;;4928553;29;20462;-85
2022/06/02 10:46:39;;;;;;;4.60;1.73;;;26.40;40.90;;;;;;4921428;29;20441;-85
2022/06/02 10:49:44;;;;;;;3.50;3.30;;;26.40;40.60;;;;;;4927318;29;20447;-85
2022/06/02 10:52:47;;;;;;;3.50;3.30;;;26.00;40.10;;;;;;4930516;29;20429;-84
2022/06/02 10:55:44;;;;;;;3.80;3.60;;;25.30;42.60;;;;;;4929884;29;20437;-84
2022/06/02 10:58:32;;;;;;;3.33;3.03;;;25.10;42.90;;;;;;4931138;29;20429;-86
2022/06/02 11:01:28;;;;;;;4.10;3.70;;;24.80;41.50;;;;;;4931262;29;20479;-84
2022/06/02 11:04:28;;;;;;;3.50;3.30;;;24.50;42.20;;;;;;4932778;29;20466;-86
2022/06/02 11:07:36;;;;;;;3.30;3.00;;;23.90;45.10;;;;;;4880125;29;20431;-85
2022/06/02 11:10:28;;;;;;;3.57;2.83;;;24.00;44.20;;;;;;4931524;29;20949;-85
2022/06/02 11:13:31;;;;;;;3.07;2.87;;;23.90;44.50;;;;;;4929975;29;21029;-82
2022/06/02 11:16:08;;;;;;;2.90;2.70;;;23.50;44.60;;;;;;4936699;29;20532;-83
2022/06/02 11:19:05;;;;;;;5.23;3.70;;;23.50;46.20;;;;;;4929348;29;20469;-85
2022/06/02 11:22:01;;;;;;;3.17;2.93;;;23.60;45.00;;;;;;4928596;29;20467;-86
2022/06/02 11:24:27;;;;;;;3.73;3.43;;;23.70;44.70;;;;;;4932175;29;20508;-83
2022/06/02 11:27:24;;;;;;;2.97;2.77;;;23.80;45.10;;;;;;4930478;29;20480;-84
2022/06/02 11:30:02;;;;;;;2.67;1.93;;;24.20;46.50;;;;;;4931102;29;20205;-83
2022/06/02 11:32:46;;;;;;;2.57;2.47;;;24.50;45.60;;;;;;4923981;29;20448;-84
2022/06/02 11:35:21;;;;;;;9.37;2.70;;;24.70;44.80;;;;;;4933624;29;20436;-84
2022/06/02 11:37:53;;;;;;;5.80;2.97;;;24.80;44.60;;;;;;4927582;29;20453;-84
2022/06/02 11:40:26;;;;;;;3.43;2.17;;;24.80;43.70;;;;;;4933053;29;20550;-84
2022/06/02 11:43:24;;;;;;;3.83;2.17;;;24.70;44.40;;;;;;4927190;29;20884;-84
2022/06/02 11:46:11;;;;;;;7.67;2.47;;;25.00;44.90;;;;;;4920889;29;20863;-83
2022/06/02 11:49:10;;;;;;;4.03;2.40;;;25.30;43.80;;;;;;4929300;29;20515;-83
2022/06/02 11:51:57;;;;;;;3.53;2.43;;;25.60;45.00;;;;;;4924761;29;20455;-83
2022/06/02 11:54:32;;;;;;;4.10;2.60;;;25.40;43.60;;;;;;4929105;29;20441;-84
2022/06/02 11:57:25;;;;;;;3.53;3.13;;;25.30;43.30;;;;;;4928173;29;20420;-85
2022/06/02 12:00:18;;;;;;;2.53;2.27;;;25.30;44.00;;;;;;4920077;29;20481;-83
2022/06/02 12:03:29;;;;;;;3.10;2.90;;;25.00;44.80;;;;;;4925589;29;20541;-84
2022/06/02 12:06:21;;;;;;;7.20;2.90;;;25.10;44.80;;;;;;4926509;29;20421;-84
2022/06/02 12:09:08;;;;;;;3.73;2.90;;;25.10;45.30;;;;;;4927421;29;20445;-83
2022/06/02 12:11:46;;;;;;;3.17;2.70;;;25.10;44.80;;;;;;4926810;29;20409;-84
2022/06/02 12:14:27;;;;;;;3.10;2.70;;;25.10;45.30;;;;;;4925634;29;21029;-83
2022/06/02 12:17:28;;;;;;;2.80;2.60;;;25.40;45.60;;;;;;4924809;29;20458;-86
2022/06/02 12:20:12;;;;;;;2.73;2.63;;;25.80;43.90;;;;;;4917264;29;21041;-84
2022/06/02 12:23:04;;;;;;;2.80;2.60;;;25.90;44.50;;;;;;4919837;29;20466;-83
2022/06/02 12:25:51;;;;;;;4.33;2.50;;;25.90;45.80;;;;;;4926935;29;20444;-82
2022/06/02 12:28:46;;;;;;;3.20;3.00;;;25.80;44.00;;;;;;4923679;29;20421;-83
2022/06/02 12:31:18;;;;;;;5.90;3.13;;;25.60;45.10;;;;;;4942090;29;20444;-84
2022/06/02 12:34:18;;;;;;;5.33;3.40;;;25.40;45.80;;;;;;4956826;29;20416;-84
2022/06/02 12:37:02;;;;;;;5.50;3.30;;;25.20;45.50;;;;;;4956024;29;20411;-84
2022/06/02 12:40:02;;;;;;;3.17;2.97;;;25.20;45.90;;;;;;4957210;28;20404;-85
2022/06/02 12:42:39;;;;;;;4.23;2.97;;;25.30;47.20;;;;;;4957222;29;20448;-83
2022/06/02 12:45:36;;;;;;;3.37;3.17;;;25.00;45.90;;;;;;4956592;29;20985;-84
2022/06/02 12:48:23;;;;;;;5.13;2.63;;;25.10;46.30;;;;;;4956181;29;20428;-83
2022/06/02 12:51:04;;;;;;;3.30;3.00;;;25.50;46.20;;;;;;4956361;29;20436;-84
2022/06/02 12:54:08;;;;;;;3.27;3.07;;;26.00;47.00;;;;;;4957027;28;20407;-83
2022/06/02 12:56:49;;;;;;;5.70;3.03;;;26.10;45.30;;;;;;4953271;28;20416;-84
2022/06/02 12:59:52;;;;;;;3.23;2.73;;;25.70;45.10;;;;;;4941288;29;20443;-84
2022/06/02 13:02:35;;;;;;;3.80;3.20;;;25.70;45.70;;;;;;4922199;29;20551;-84
2022/06/02 13:05:40;;;;;;;4.30;3.07;;;25.80;45.80;;;;;;4935102;29;20416;-85
2022/06/02 13:08:33;;;;;;;3.20;2.90;;;25.90;46.70;;;;;;4934486;29;20800;-84
2022/06/02 13:11:20;;;;;;;4.23;3.40;;;26.10;45.80;;;;;;4934765;29;20968;-83
2022/06/02 13:14:21;;;;;;;4.07;3.20;;;26.10;45.30;;;;;;4930906;29;20486;-83
2022/06/02 13:17:05;;;;;;;4.70;3.30;;;26.00;44.70;;;;;;4925223;29;20482;-83
2022/06/02 13:20:13;;;;;;;3.40;3.20;;;26.10;45.50;;;;;;4931223;29;20469;-84
2022/06/02 13:23:11;;;;;;;4.63;2.70;;;25.60;45.20;;;;;;4919581;29;20492;-85
2022/06/02 13:25:49;;;;;;;7.17;3.20;;;25.80;45.80;;;;;;4922683;29;20999;-85
2022/06/02 13:28:33;;;;;;;3.13;2.93;;;26.00;46.00;;;;;;4926365;29;20480;-84
2022/06/02 13:31:32;;;;;;;7.33;2.90;;;26.30;47.90;;;;;;4922428;29;20477;-85
2022/06/02 13:34:35;;;;;;;2.83;2.73;;;26.30;45.60;;;;;;4921107;29;20526;-84
2022/06/02 13:37:21;;;;;;;3.40;3.10;;;26.40;46.20;;;;;;4919112;29;20470;-84
2022/06/02 13:40:19;;;;;;;8.20;5.10;;;26.80;45.00;;;;;;4921562;29;20528;-84
2022/06/02 13:43:19;;;;;;;3.40;2.73;;;26.90;46.10;;;;;;4883508;29;20535;-82
2022/06/02 13:45:54;;;;;;;3.20;2.83;;;27.00;45.00;;;;;;4921767;29;20446;-83
2022/06/02 13:48:38;;;;;;;2.97;2.77;;;26.50;44.40;;;;;;4922668;29;20442;-83
2022/06/02 13:51:28;;;;;;;5.47;3.13;;;25.80;45.50;;;;;;4916886;29;20462;-85
2022/06/02 13:57:31;;;;;;;3.10;2.80;;;25.80;46.10;;;;;;4923526;29;20436;-84
2022/06/02 14:00:09;;;;;;;5.93;2.70;;;25.40;46.80;;;;;;4929381;29;20570;-83
2022/06/02 14:02:56;;;;;;;2.80;2.60;;;24.90;48.00;;;;;;4930225;29;20461;-82
2022/06/02 14:05:41;;;;;;;5.10;2.83;;;25.00;48.80;;;;;;4928945;29;20441;-82
2022/06/02 14:08:23;;;;;;;4.90;3.07;;;25.10;48.00;;;;;;4947437;29;20904;-83
2022/06/02 14:10:57;;;;;;;2.90;2.70;;;25.00;48.20;;;;;;4942177;29;20462;-83
2022/06/02 14:13:40;;;;;;;6.07;3.03;;;24.90;48.20;;;;;;4935719;29;20444;-82
2022/06/02 14:16:20;;;;;;;3.80;3.10;;;25.40;48.20;;;;;;4933591;29;20464;-83
2022/06/02 14:18:51;;;;;;;3.00;2.60;;;25.50;48.60;;;;;;4932858;29;20449;-83
2022/06/02 14:21:22;;;;;;;2.73;2.53;;;25.30;47.50;;;;;;4934015;29;20457;-83
2022/06/02 14:24:04;;;;;;;4.27;3.23;;;25.40;48.70;;;;;;4937570;29;20501;-83
2022/06/02 14:26:53;;;;;;;3.00;2.80;;;25.50;48.60;;;;;;4936463;29;20433;-83
2022/06/02 14:29:28;;;;;;;3.47;3.13;;;25.50;47.30;;;;;;4933873;29;20475;-83
2022/06/02 14:31:53;;;;;;;3.43;2.63;;;25.40;47.70;;;;;;4936701;29;20485;-83
2022/06/02 14:34:37;;;;;;;2.67;2.23;;;25.40;48.00;;;;;;4938470;29;20452;-82
2022/06/02 14:37:28;;;;;;;3.07;2.87;;;25.40;48.00;;;;;;4938556;29;20510;-83
2022/06/02 14:40:07;;;;;;;2.70;2.50;;;25.10;48.50;;;;;;4935447;29;20471;-83
2022/06/02 14:43:03;;;;;;;5.67;2.50;;;25.20;49.20;;;;;;4934489;29;20467;-83
2022/06/02 14:45:55;;;;;;;3.93;2.73;;;25.00;48.80;;;;;;4933752;29;20528;-83
2022/06/02 14:48:36;;;;;;;8.53;3.10;;;25.00;48.80;;;;;;4934650;29;20453;-82